sensor_id;sensor_type;location;lat;lon;timestamp;temperature;humidity
1504;DHT22;743;47.076;15.494;2022-09-09T00:01:13;18.30;1.00
1504;DHT22;743;47.076;15.494;2022-09-09T00:03:47;18.30;1.00
1504;DHT22;743;47.076;15.494;2022-09-09T00:06:19;17.90;1.00
1504;DHT22;743;47.076;15.494;2022-09-09T00:08:53;18.10;11.00
1504;DHT22;743;47.076;15.494;2022-09-09T00:16:20;18.20;1.00
1504;DHT22;743;47.076;15.494;2022-09-09T00:21:17;17.90;1.00
1504;DHT22;743;47.076;15.494;2022-09-09T00:23:45;17.90;1.00
1504;DHT22;743;47.076;15.494;2022-09-09T00:28:44;17.80;41.20
1504;DHT22;743;47.076;15.494;2022-09-09T00:31:14;17.80;34.00
1504;DHT22;743;47.076;15.494;2022-09-09T00:33:48;17.90;93.40
1504;DHT22;743;47.076;15.494;2022-09-09T00:38:44;17.80;2.20
1504;DHT22;743;47.076;15.494;2022-09-09T00:48:40;17.70;2.60
1504;DHT22;743;47.076;15.494;2022-09-09T00:51:11;17.70;1.00
1504;DHT22;743;47.076;15.494;2022-09-09T00:53:51;17.90;1.00
1504;DHT22;743;47.076;15.494;2022-09-09T00:56:23;17.90;1.00
1504;DHT22;743;47.076;15.494;2022-09-09T01:03:48;17.50;1.00
1504;DHT22;743;47.076;15.494;2022-09-09T01:11:13;17.50;83.60
1504;DHT22;743;47.076;15.494;2022-09-09T01:16:11;17.40;58.40
1504;DHT22;743;47.076;15.494;2022-09-09T01:18:40;17.20;15.50
1504;DHT22;743;47.076;15.494;2022-09-09T01:21:13;17.40;1.00
1504;DHT22;743;47.076;15.494;2022-09-09T01:26:12;17.50;1.00
1504;DHT22;743;47.076;15.494;2022-09-09T01:38:33;17.40;1.00
1504;DHT22;743;47.076;15.494;2022-09-09T01:43:29;17.20;1.00
1504;DHT22;743;47.076;15.494;2022-09-09T01:45:58;17.00;1.00
1504;DHT22;743;47.076;15.494;2022-09-09T01:55:48;17.00;1.00
1504;DHT22;743;47.076;15.494;2022-09-09T01:58:24;17.20;1.00
1504;DHT22;743;47.076;15.494;2022-09-09T02:00:59;17.10;13.70
1504;DHT22;743;47.076;15.494;2022-09-09T02:08:23;17.30;1.00
1504;DHT22;743;47.076;15.494;2022-09-09T02:10:53;17.30;1.00
1504;DHT22;743;47.076;15.494;2022-09-09T02:15:51;17.20;1.00
1504;DHT22;743;47.076;15.494;2022-09-09T02:18:24;17.00;1.00
1504;DHT22;743;47.076;15.494;2022-09-09T02:20:53;17.20;1.00
1504;DHT22;743;47.076;15.494;2022-09-09T02:23:21;17.00;1.00
1504;DHT22;743;47.076;15.494;2022-09-09T02:28:17;16.90;1.00
1504;DHT22;743;47.076;15.494;2022-09-09T02:33:15;17.00;1.00
1504;DHT22;743;47.076;15.494;2022-09-09T02:35:43;17.10;1.90
1504;DHT22;743;47.076;15.494;2022-09-09T02:38:12;17.10;9.50
1504;DHT22;743;47.076;15.494;2022-09-09T02:40:40;16.80;7.60
1504;DHT22;743;47.076;15.494;2022-09-09T02:43:07;17.10;28.30
1504;DHT22;743;47.076;15.494;2022-09-09T02:45:36;17.00;7.90
1504;DHT22;743;47.076;15.494;2022-09-09T02:48:09;17.10;1.00
1504;DHT22;743;47.076;15.494;2022-09-09T02:50:39;17.00;18.00
1504;DHT22;743;47.076;15.494;2022-09-09T02:53:12;17.10;5.70
1504;DHT22;743;47.076;15.494;2022-09-09T02:55:45;17.20;67.60
1504;DHT22;743;47.076;15.494;2022-09-09T02:58:15;16.90;14.60
1504;DHT22;743;47.076;15.494;2022-09-09T03:00:43;16.90;32.90
1504;DHT22;743;47.076;15.494;2022-09-09T03:13:04;17.00;1.00
1504;DHT22;743;47.076;15.494;2022-09-09T03:18:00;17.00;1.00
1504;DHT22;743;47.076;15.494;2022-09-09T03:20:28;16.80;3.20
1504;DHT22;743;47.076;15.494;2022-09-09T03:22:55;16.90;1.00
1504;DHT22;743;47.076;15.494;2022-09-09T03:25:23;17.00;1.00
1504;DHT22;743;47.076;15.494;2022-09-09T03:30:21;17.50;59.10
1504;DHT22;743;47.076;15.494;2022-09-09T03:32:47;17.10;54.40
1504;DHT22;743;47.076;15.494;2022-09-09T03:37:42;17.20;1.00
1504;DHT22;743;47.076;15.494;2022-09-09T03:40:09;17.40;1.00
1504;DHT22;743;47.076;15.494;2022-09-09T03:42:36;17.60;1.00
1504;DHT22;743;47.076;15.494;2022-09-09T03:45:04;17.30;1.00
1504;DHT22;743;47.076;15.494;2022-09-09T03:47:33;17.20;1.00
1504;DHT22;743;47.076;15.494;2022-09-09T03:50:02;18.00;1.00
1504;DHT22;743;47.076;15.494;2022-09-09T03:52:29;17.60;1.00
1504;DHT22;743;47.076;15.494;2022-09-09T04:07:23;17.10;1.00
1504;DHT22;743;47.076;15.494;2022-09-09T04:09:50;17.30;1.00
1504;DHT22;743;47.076;15.494;2022-09-09T04:12:18;17.70;1.00
1504;DHT22;743;47.076;15.494;2022-09-09T04:19:42;17.00;1.00
1504;DHT22;743;47.076;15.494;2022-09-09T04:24:38;16.90;27.10
1504;DHT22;743;47.076;15.494;2022-09-09T04:27:05;17.00;92.60
1504;DHT22;743;47.076;15.494;2022-09-09T04:29:31;17.00;99.90
1504;DHT22;743;47.076;15.494;2022-09-09T04:31:58;16.90;99.90
1504;DHT22;743;47.076;15.494;2022-09-09T04:39:21;17.00;99.90
1504;DHT22;743;47.076;15.494;2022-09-09T04:41:50;17.00;99.90
1504;DHT22;743;47.076;15.494;2022-09-09T04:44:17;16.80;99.90
1504;DHT22;743;47.076;15.494;2022-09-09T04:46:44;16.90;99.90
1504;DHT22;743;47.076;15.494;2022-09-09T04:51:38;17.00;99.90
1504;DHT22;743;47.076;15.494;2022-09-09T04:54:05;16.90;99.90
1504;DHT22;743;47.076;15.494;2022-09-09T04:59:01;17.10;99.90
1504;DHT22;743;47.076;15.494;2022-09-09T05:01:28;17.00;99.90
1504;DHT22;743;47.076;15.494;2022-09-09T05:03:59;17.00;99.90
1504;DHT22;743;47.076;15.494;2022-09-09T05:06:26;17.30;94.80
1504;DHT22;743;47.076;15.494;2022-09-09T05:08:54;17.20;30.10
1504;DHT22;743;47.076;15.494;2022-09-09T05:11:22;17.40;1.00
1504;DHT22;743;47.076;15.494;2022-09-09T05:13:51;17.00;1.00
1504;DHT22;743;47.076;15.494;2022-09-09T05:21:18;19.50;99.90
1504;DHT22;743;47.076;15.494;2022-09-09T05:23:47;20.00;99.90
1504;DHT22;743;47.076;15.494;2022-09-09T05:31:14;18.70;1.00
1504;DHT22;743;47.076;15.494;2022-09-09T05:33:52;18.40;1.00
1504;DHT22;743;47.076;15.494;2022-09-09T05:36:20;18.20;1.00
1504;DHT22;743;47.076;15.494;2022-09-09T05:38:48;18.20;1.00
1504;DHT22;743;47.076;15.494;2022-09-09T05:41:19;18.30;1.00
1504;DHT22;743;47.076;15.494;2022-09-09T05:43:46;18.10;1.00
1504;DHT22;743;47.076;15.494;2022-09-09T05:48:42;18.30;1.00
1504;DHT22;743;47.076;15.494;2022-09-09T05:51:12;18.50;1.00
1504;DHT22;743;47.076;15.494;2022-09-09T05:53:42;19.70;1.00
1504;DHT22;743;47.076;15.494;2022-09-09T05:56:13;20.60;99.90
1504;DHT22;743;47.076;15.494;2022-09-09T05:58:41;21.20;1.00
1504;DHT22;743;47.076;15.494;2022-09-09T06:01:09;21.70;1.00
1504;DHT22;743;47.076;15.494;2022-09-09T06:03:37;21.30;1.00
1504;DHT22;743;47.076;15.494;2022-09-09T06:08:32;21.10;1.00
1504;DHT22;743;47.076;15.494;2022-09-09T06:18:23;20.40;1.00
1504;DHT22;743;47.076;15.494;2022-09-09T06:23:19;19.80;1.00
1504;DHT22;743;47.076;15.494;2022-09-09T06:28:14;20.60;1.00
1504;DHT22;743;47.076;15.494;2022-09-09T06:30:48;20.10;1.00
1504;DHT22;743;47.076;15.494;2022-09-09T06:33:30;20.40;1.00
1504;DHT22;743;47.076;15.494;2022-09-09T06:35:59;20.00;1.00
1504;DHT22;743;47.076;15.494;2022-09-09T06:43:21;21.20;1.00
1504;DHT22;743;47.076;15.494;2022-09-09T06:46:02;21.10;1.00
1504;DHT22;743;47.076;15.494;2022-09-09T06:48:31;21.20;1.00
1504;DHT22;743;47.076;15.494;2022-09-09T06:51:01;21.80;1.00
1504;DHT22;743;47.076;15.494;2022-09-09T06:53:28;22.10;1.00
1504;DHT22;743;47.076;15.494;2022-09-09T06:56:00;22.00;1.00
1504;DHT22;743;47.076;15.494;2022-09-09T07:10:49;22.40;1.00
1504;DHT22;743;47.076;15.494;2022-09-09T07:18:20;22.30;1.00
1504;DHT22;743;47.076;15.494;2022-09-09T07:20:53;22.20;1.00
1504;DHT22;743;47.076;15.494;2022-09-09T07:23:22;22.50;1.00
1504;DHT22;743;47.076;15.494;2022-09-09T07:25:52;22.60;1.00
1504;DHT22;743;47.076;15.494;2022-09-09T07:28:22;22.40;1.00
1504;DHT22;743;47.076;15.494;2022-09-09T07:30:53;22.10;1.00
1504;DHT22;743;47.076;15.494;2022-09-09T07:33:21;21.80;1.00
1504;DHT22;743;47.076;15.494;2022-09-09T07:35:48;21.80;1.00
1504;DHT22;743;47.076;15.494;2022-09-09T07:38:17;21.80;1.00
1504;DHT22;743;47.076;15.494;2022-09-09T07:43:12;21.20;1.00
1504;DHT22;743;47.076;15.494;2022-09-09T07:45:44;21.10;1.00
1504;DHT22;743;47.076;15.494;2022-09-09T07:48:12;21.30;1.00
1504;DHT22;743;47.076;15.494;2022-09-09T07:53:10;21.10;1.00
1504;DHT22;743;47.076;15.494;2022-09-09T07:55:38;21.00;1.00
1504;DHT22;743;47.076;15.494;2022-09-09T07:58:05;21.00;1.00
1504;DHT22;743;47.076;15.494;2022-09-09T08:00:34;20.80;1.00
1504;DHT22;743;47.076;15.494;2022-09-09T08:03:01;21.70;1.00
1504;DHT22;743;47.076;15.494;2022-09-09T08:07:56;21.50;1.00
1504;DHT22;743;47.076;15.494;2022-09-09T08:10:23;21.50;1.00
1504;DHT22;743;47.076;15.494;2022-09-09T08:12:52;21.30;1.00
1504;DHT22;743;47.076;15.494;2022-09-09T08:15:18;21.00;1.00
1504;DHT22;743;47.076;15.494;2022-09-09T08:17:48;21.20;1.00
1504;DHT22;743;47.076;15.494;2022-09-09T08:20:15;21.10;1.00
1504;DHT22;743;47.076;15.494;2022-09-09T08:22:42;21.10;1.00
1504;DHT22;743;47.076;15.494;2022-09-09T08:25:09;21.00;1.00
1504;DHT22;743;47.076;15.494;2022-09-09T08:27:36;21.20;1.00
1504;DHT22;743;47.076;15.494;2022-09-09T08:30:04;20.90;1.00
1504;DHT22;743;47.076;15.494;2022-09-09T08:32:33;21.00;1.00
1504;DHT22;743;47.076;15.494;2022-09-09T08:47:41;21.20;1.00
1504;DHT22;743;47.076;15.494;2022-09-09T08:50:17;20.70;1.00
1504;DHT22;743;47.076;15.494;2022-09-09T08:55:21;21.10;1.00
1504;DHT22;743;47.076;15.494;2022-09-09T08:57:51;21.10;1.00
1504;DHT22;743;47.076;15.494;2022-09-09T09:00:19;21.00;1.00
1504;DHT22;743;47.076;15.494;2022-09-09T09:02:48;21.10;1.00
1504;DHT22;743;47.076;15.494;2022-09-09T09:05:23;20.90;1.00
1504;DHT22;743;47.076;15.494;2022-09-09T09:10:22;21.40;1.00
1504;DHT22;743;47.076;15.494;2022-09-09T09:12:52;21.40;1.00
1504;DHT22;743;47.076;15.494;2022-09-09T09:15:20;21.70;1.00
1504;DHT22;743;47.076;15.494;2022-09-09T09:17:49;21.90;1.00
1504;DHT22;743;47.076;15.494;2022-09-09T09:20:17;21.90;1.00
1504;DHT22;743;47.076;15.494;2022-09-09T09:25:14;21.50;1.00
1504;DHT22;743;47.076;15.494;2022-09-09T09:27:44;21.60;1.00
1504;DHT22;743;47.076;15.494;2022-09-09T09:30:13;21.40;1.00
1504;DHT22;743;47.076;15.494;2022-09-09T09:32:46;22.10;1.00
1504;DHT22;743;47.076;15.494;2022-09-09T09:37:44;22.20;1.00
1504;DHT22;743;47.076;15.494;2022-09-09T09:40:12;22.30;1.00
1504;DHT22;743;47.076;15.494;2022-09-09T09:42:48;22.60;1.00
1504;DHT22;743;47.076;15.494;2022-09-09T09:47:44;23.30;1.00
1504;DHT22;743;47.076;15.494;2022-09-09T09:50:19;23.70;1.00
1504;DHT22;743;47.076;15.494;2022-09-09T09:52:54;24.30;1.00
1504;DHT22;743;47.076;15.494;2022-09-09T09:55:22;23.70;1.00
1504;DHT22;743;47.076;15.494;2022-09-09T09:57:50;23.60;1.00
1504;DHT22;743;47.076;15.494;2022-09-09T10:00:18;23.30;1.00
1504;DHT22;743;47.076;15.494;2022-09-09T10:02:47;23.10;1.00
1504;DHT22;743;47.076;15.494;2022-09-09T10:05:15;23.20;1.00
1504;DHT22;743;47.076;15.494;2022-09-09T10:07:43;23.10;1.00
1504;DHT22;743;47.076;15.494;2022-09-09T10:10:15;22.60;1.00
1504;DHT22;743;47.076;15.494;2022-09-09T10:12:57;22.90;1.00
1504;DHT22;743;47.076;15.494;2022-09-09T10:15:30;22.90;1.00
1504;DHT22;743;47.076;15.494;2022-09-09T10:18:00;23.30;1.00
1504;DHT22;743;47.076;15.494;2022-09-09T10:20:35;23.50;1.00
1504;DHT22;743;47.076;15.494;2022-09-09T10:23:08;23.70;1.00
1504;DHT22;743;47.076;15.494;2022-09-09T10:25:47;23.30;1.00
1504;DHT22;743;47.076;15.494;2022-09-09T10:28:30;23.30;1.00
1504;DHT22;743;47.076;15.494;2022-09-09T10:31:06;22.90;1.00
1504;DHT22;743;47.076;15.494;2022-09-09T10:33:39;23.00;1.00
1504;DHT22;743;47.076;15.494;2022-09-09T10:36:11;22.70;1.00
1504;DHT22;743;47.076;15.494;2022-09-09T10:38:40;22.90;1.00
1504;DHT22;743;47.076;15.494;2022-09-09T10:43:45;23.60;1.00
1504;DHT22;743;47.076;15.494;2022-09-09T10:48:46;24.20;1.00
1504;DHT22;743;47.076;15.494;2022-09-09T10:51:21;24.40;1.00
1504;DHT22;743;47.076;15.494;2022-09-09T10:53:53;24.30;1.00
1504;DHT22;743;47.076;15.494;2022-09-09T10:56:25;24.10;1.00
1504;DHT22;743;47.076;15.494;2022-09-09T10:58:55;24.20;1.00
1504;DHT22;743;47.076;15.494;2022-09-09T11:03:53;23.60;1.00
1504;DHT22;743;47.076;15.494;2022-09-09T11:06:23;23.80;1.00
1504;DHT22;743;47.076;15.494;2022-09-09T11:08:53;23.70;1.00
1504;DHT22;743;47.076;15.494;2022-09-09T11:13:53;23.70;1.00
1504;DHT22;743;47.076;15.494;2022-09-09T11:16:24;23.70;1.00
1504;DHT22;743;47.076;15.494;2022-09-09T11:18:54;23.80;1.00
1504;DHT22;743;47.076;15.494;2022-09-09T11:23:49;23.30;1.00
1504;DHT22;743;47.076;15.494;2022-09-09T11:26:21;23.40;1.00
1504;DHT22;743;47.076;15.494;2022-09-09T11:28:55;23.10;1.00
1504;DHT22;743;47.076;15.494;2022-09-09T11:31:34;23.40;1.00
1504;DHT22;743;47.076;15.494;2022-09-09T11:36:51;23.10;1.00
1504;DHT22;743;47.076;15.494;2022-09-09T11:39:28;23.30;1.00
1504;DHT22;743;47.076;15.494;2022-09-09T11:42:05;23.50;1.00
1504;DHT22;743;47.076;15.494;2022-09-09T11:47:01;23.80;1.00
1504;DHT22;743;47.076;15.494;2022-09-09T11:49:29;23.70;1.00
1504;DHT22;743;47.076;15.494;2022-09-09T11:52:11;23.40;1.00
1504;DHT22;743;47.076;15.494;2022-09-09T11:54:44;23.60;1.00
1504;DHT22;743;47.076;15.494;2022-09-09T11:57:17;23.80;1.00
1504;DHT22;743;47.076;15.494;2022-09-09T11:59:50;23.50;1.00
1504;DHT22;743;47.076;15.494;2022-09-09T12:02:22;23.80;1.00
1504;DHT22;743;47.076;15.494;2022-09-09T12:04:54;23.60;1.00
1504;DHT22;743;47.076;15.494;2022-09-09T12:07:31;23.50;1.00
1504;DHT22;743;47.076;15.494;2022-09-09T12:10:01;23.30;1.00
1504;DHT22;743;47.076;15.494;2022-09-09T12:12:33;23.50;1.00
1504;DHT22;743;47.076;15.494;2022-09-09T12:15:03;23.20;1.00
1504;DHT22;743;47.076;15.494;2022-09-09T12:17:45;23.10;1.00
1504;DHT22;743;47.076;15.494;2022-09-09T12:20:12;23.10;1.00
1504;DHT22;743;47.076;15.494;2022-09-09T12:22:43;23.10;1.00
1504;DHT22;743;47.076;15.494;2022-09-09T12:25:16;23.10;1.00
1504;DHT22;743;47.076;15.494;2022-09-09T12:27:46;22.90;1.00
1504;DHT22;743;47.076;15.494;2022-09-09T12:30:17;23.10;1.00
1504;DHT22;743;47.076;15.494;2022-09-09T12:32:58;23.30;1.00
1504;DHT22;743;47.076;15.494;2022-09-09T12:37:53;23.80;1.00
1504;DHT22;743;47.076;15.494;2022-09-09T12:40:23;23.90;1.00
1504;DHT22;743;47.076;15.494;2022-09-09T12:42:53;23.50;1.00
1504;DHT22;743;47.076;15.494;2022-09-09T12:50:26;24.50;1.00
1504;DHT22;743;47.076;15.494;2022-09-09T12:52:54;24.70;1.00
1504;DHT22;743;47.076;15.494;2022-09-09T13:00:18;24.40;1.00
1504;DHT22;743;47.076;15.494;2022-09-09T13:02:46;24.60;1.00
1504;DHT22;743;47.076;15.494;2022-09-09T13:05:16;24.30;1.00
1504;DHT22;743;47.076;15.494;2022-09-09T13:07:45;23.80;1.00
1504;DHT22;743;47.076;15.494;2022-09-09T13:10:13;23.90;1.00
1504;DHT22;743;47.076;15.494;2022-09-09T13:12:42;23.70;1.00
1504;DHT22;743;47.076;15.494;2022-09-09T13:17:36;23.70;1.00
1504;DHT22;743;47.076;15.494;2022-09-09T13:27:30;23.80;1.00
1504;DHT22;743;47.076;15.494;2022-09-09T13:29:57;23.90;1.00
1504;DHT22;743;47.076;15.494;2022-09-09T13:32:24;24.00;1.00
1504;DHT22;743;47.076;15.494;2022-09-09T13:37:22;24.20;1.00
1504;DHT22;743;47.076;15.494;2022-09-09T13:39:51;23.80;1.00
1504;DHT22;743;47.076;15.494;2022-09-09T13:44:49;24.20;1.00
1504;DHT22;743;47.076;15.494;2022-09-09T13:47:17;24.60;1.00
1504;DHT22;743;47.076;15.494;2022-09-09T13:49:48;24.40;1.00
1504;DHT22;743;47.076;15.494;2022-09-09T13:59:38;24.30;1.00
1504;DHT22;743;47.076;15.494;2022-09-09T14:02:06;24.40;1.00
1504;DHT22;743;47.076;15.494;2022-09-09T14:07:01;24.40;1.00
1504;DHT22;743;47.076;15.494;2022-09-09T14:14:23;24.20;1.00
1504;DHT22;743;47.076;15.494;2022-09-09T14:16:51;24.00;1.00
1504;DHT22;743;47.076;15.494;2022-09-09T14:19:24;25.30;1.00
1504;DHT22;743;47.076;15.494;2022-09-09T14:24:18;24.30;1.00
1504;DHT22;743;47.076;15.494;2022-09-09T14:26:45;24.70;1.00
1504;DHT22;743;47.076;15.494;2022-09-09T14:29:13;24.60;1.00
1504;DHT22;743;47.076;15.494;2022-09-09T14:31:40;24.60;1.00
1504;DHT22;743;47.076;15.494;2022-09-09T14:34:07;24.40;1.00
1504;DHT22;743;47.076;15.494;2022-09-09T14:41:32;24.60;1.00
1504;DHT22;743;47.076;15.494;2022-09-09T14:44:00;24.00;1.00
1504;DHT22;743;47.076;15.494;2022-09-09T14:46:27;24.00;1.00
1504;DHT22;743;47.076;15.494;2022-09-09T14:48:55;23.60;1.00
1504;DHT22;743;47.076;15.494;2022-09-09T14:51:23;23.10;1.00
1504;DHT22;743;47.076;15.494;2022-09-09T14:53:51;22.70;1.00
1504;DHT22;743;47.076;15.494;2022-09-09T14:58:47;22.50;1.00
1504;DHT22;743;47.076;15.494;2022-09-09T15:03:52;22.20;1.00
1504;DHT22;743;47.076;15.494;2022-09-09T15:08:50;22.00;1.00
1504;DHT22;743;47.076;15.494;2022-09-09T15:13:44;22.30;1.00
1504;DHT22;743;47.076;15.494;2022-09-09T15:18:40;22.40;1.00
1504;DHT22;743;47.076;15.494;2022-09-09T15:21:08;22.40;1.00
1504;DHT22;743;47.076;15.494;2022-09-09T15:26:03;22.30;1.00
1504;DHT22;743;47.076;15.494;2022-09-09T15:28:31;22.20;1.00
1504;DHT22;743;47.076;15.494;2022-09-09T15:30:58;21.80;1.00
1504;DHT22;743;47.076;15.494;2022-09-09T15:35:56;22.20;1.00
1504;DHT22;743;47.076;15.494;2022-09-09T15:38:22;22.20;1.00
1504;DHT22;743;47.076;15.494;2022-09-09T15:40:52;21.80;1.00
1504;DHT22;743;47.076;15.494;2022-09-09T15:45:49;21.60;1.00
1504;DHT22;743;47.076;15.494;2022-09-09T15:48:19;21.80;1.00
1504;DHT22;743;47.076;15.494;2022-09-09T15:50:47;21.70;1.00
1504;DHT22;743;47.076;15.494;2022-09-09T15:53:25;22.10;1.00
1504;DHT22;743;47.076;15.494;2022-09-09T16:01:00;22.80;1.00
1504;DHT22;743;47.076;15.494;2022-09-09T16:20:56;23.80;1.00
1504;DHT22;743;47.076;15.494;2022-09-09T16:25:53;23.80;1.00
1504;DHT22;743;47.076;15.494;2022-09-09T16:28:20;23.90;1.00
1504;DHT22;743;47.076;15.494;2022-09-09T16:33:16;23.80;1.00
1504;DHT22;743;47.076;15.494;2022-09-09T16:35:43;24.00;1.00
1504;DHT22;743;47.076;15.494;2022-09-09T16:38:13;23.60;1.00
1504;DHT22;743;47.076;15.494;2022-09-09T16:40:41;23.40;1.00
1504;DHT22;743;47.076;15.494;2022-09-09T16:43:11;23.00;1.00
1504;DHT22;743;47.076;15.494;2022-09-09T16:45:41;22.80;1.00
1504;DHT22;743;47.076;15.494;2022-09-09T16:48:08;22.70;1.00
1504;DHT22;743;47.076;15.494;2022-09-09T16:50:35;22.50;1.00
1504;DHT22;743;47.076;15.494;2022-09-09T16:55:33;22.20;1.00
1504;DHT22;743;47.076;15.494;2022-09-09T16:58:03;22.40;1.00
1504;DHT22;743;47.076;15.494;2022-09-09T17:00:30;22.10;1.00
1504;DHT22;743;47.076;15.494;2022-09-09T17:02:57;22.10;1.00
1504;DHT22;743;47.076;15.494;2022-09-09T17:05:24;21.80;1.00
1504;DHT22;743;47.076;15.494;2022-09-09T17:07:51;21.80;1.00
1504;DHT22;743;47.076;15.494;2022-09-09T17:12:52;22.30;1.00
1504;DHT22;743;47.076;15.494;2022-09-09T17:20:26;23.10;1.00
1504;DHT22;743;47.076;15.494;2022-09-09T17:22:53;22.80;1.00
1504;DHT22;743;47.076;15.494;2022-09-09T17:27:47;22.30;1.00
1504;DHT22;743;47.076;15.494;2022-09-09T17:30:15;22.10;1.00
1504;DHT22;743;47.076;15.494;2022-09-09T17:35:12;21.90;1.00
1504;DHT22;743;47.076;15.494;2022-09-09T17:37:39;21.70;1.00
1504;DHT22;743;47.076;15.494;2022-09-09T17:42:35;21.70;1.00
1504;DHT22;743;47.076;15.494;2022-09-09T17:45:02;21.50;1.00
1504;DHT22;743;47.076;15.494;2022-09-09T17:47:31;21.30;1.00
1504;DHT22;743;47.076;15.494;2022-09-09T17:52:25;21.80;1.00
1504;DHT22;743;47.076;15.494;2022-09-09T17:54:55;21.50;1.00
1504;DHT22;743;47.076;15.494;2022-09-09T17:57:23;21.30;1.00
1504;DHT22;743;47.076;15.494;2022-09-09T18:04:48;21.20;28.20
1504;DHT22;743;47.076;15.494;2022-09-09T18:09:42;21.10;99.90
1504;DHT22;743;47.076;15.494;2022-09-09T18:12:10;21.40;1.00
1504;DHT22;743;47.076;15.494;2022-09-09T18:14:37;22.30;99.90
1504;DHT22;743;47.076;15.494;2022-09-09T18:19:33;22.90;1.00
1504;DHT22;743;47.076;15.494;2022-09-09T18:22:04;23.00;1.00
1504;DHT22;743;47.076;15.494;2022-09-09T18:24:31;22.70;1.00
1504;DHT22;743;47.076;15.494;2022-09-09T18:29:25;22.80;1.00
1504;DHT22;743;47.076;15.494;2022-09-09T18:31:53;22.40;1.00
1504;DHT22;743;47.076;15.494;2022-09-09T18:39:20;22.80;1.00
1504;DHT22;743;47.076;15.494;2022-09-09T18:41:48;23.10;1.00
1504;DHT22;743;47.076;15.494;2022-09-09T18:44:17;23.20;1.00
1504;DHT22;743;47.076;15.494;2022-09-09T18:49:13;23.40;1.00
1504;DHT22;743;47.076;15.494;2022-09-09T18:56:36;23.00;1.00
1504;DHT22;743;47.076;15.494;2022-09-09T19:01:30;22.20;1.00
1504;DHT22;743;47.076;15.494;2022-09-09T19:04:00;22.10;1.00
1504;DHT22;743;47.076;15.494;2022-09-09T19:11:23;21.60;1.00
1504;DHT22;743;47.076;15.494;2022-09-09T19:13:55;21.50;1.00
1504;DHT22;743;47.076;15.494;2022-09-09T19:16:23;21.30;1.00
1504;DHT22;743;47.076;15.494;2022-09-09T19:18:52;21.20;1.00
1504;DHT22;743;47.076;15.494;2022-09-09T19:21:22;21.20;1.00
1504;DHT22;743;47.076;15.494;2022-09-09T19:23:53;21.20;1.00
1504;DHT22;743;47.076;15.494;2022-09-09T19:26:20;21.20;1.00
1504;DHT22;743;47.076;15.494;2022-09-09T19:28:47;21.20;1.00
1504;DHT22;743;47.076;15.494;2022-09-09T19:31:18;21.10;1.00
1504;DHT22;743;47.076;15.494;2022-09-09T19:33:46;21.00;1.00
1504;DHT22;743;47.076;15.494;2022-09-09T19:36:15;20.90;1.00
1504;DHT22;743;47.076;15.494;2022-09-09T19:38:43;20.80;1.00
1504;DHT22;743;47.076;15.494;2022-09-09T19:41:11;20.80;1.00
1504;DHT22;743;47.076;15.494;2022-09-09T19:43:38;20.80;1.00
1504;DHT22;743;47.076;15.494;2022-09-09T19:46:06;20.70;14.90
1504;DHT22;743;47.076;15.494;2022-09-09T19:48:35;20.40;83.50
1504;DHT22;743;47.076;15.494;2022-09-09T19:51:03;20.40;99.90
1504;DHT22;743;47.076;15.494;2022-09-09T19:53:31;20.40;99.90
1504;DHT22;743;47.076;15.494;2022-09-09T19:56:01;20.30;99.90
1504;DHT22;743;47.076;15.494;2022-09-09T19:58:29;20.30;99.90
1504;DHT22;743;47.076;15.494;2022-09-09T20:01:03;20.50;99.90
1504;DHT22;743;47.076;15.494;2022-09-09T20:03:30;20.40;99.90
1504;DHT22;743;47.076;15.494;2022-09-09T20:05:59;20.50;1.00
1504;DHT22;743;47.076;15.494;2022-09-09T20:08:26;20.70;98.40
1504;DHT22;743;47.076;15.494;2022-09-09T20:10:53;21.60;12.60
1504;DHT22;743;47.076;15.494;2022-09-09T20:13:21;21.60;1.00
1504;DHT22;743;47.076;15.494;2022-09-09T20:15:55;22.20;99.90
1504;DHT22;743;47.076;15.494;2022-09-09T20:18:22;22.30;1.00
1504;DHT22;743;47.076;15.494;2022-09-09T20:20:49;22.40;1.00
1504;DHT22;743;47.076;15.494;2022-09-09T20:23:17;22.50;1.00
1504;DHT22;743;47.076;15.494;2022-09-09T20:25:45;23.90;1.00
1504;DHT22;743;47.076;15.494;2022-09-09T20:28:12;22.70;1.00
1504;DHT22;743;47.076;15.494;2022-09-09T20:30:39;22.90;1.00
1504;DHT22;743;47.076;15.494;2022-09-09T20:33:06;22.70;1.00
1504;DHT22;743;47.076;15.494;2022-09-09T20:35:33;22.70;1.00
1504;DHT22;743;47.076;15.494;2022-09-09T20:38:01;23.00;1.00
1504;DHT22;743;47.076;15.494;2022-09-09T20:40:31;23.10;1.00
1504;DHT22;743;47.076;15.494;2022-09-09T20:43:01;23.10;1.00
1504;DHT22;743;47.076;15.494;2022-09-09T20:45:29;23.10;1.00
1504;DHT22;743;47.076;15.494;2022-09-09T20:47:57;23.20;1.00
1504;DHT22;743;47.076;15.494;2022-09-09T20:50:28;23.20;1.00
1504;DHT22;743;47.076;15.494;2022-09-09T20:52:55;23.40;1.00
1504;DHT22;743;47.076;15.494;2022-09-09T20:55:22;23.40;1.00
1504;DHT22;743;47.076;15.494;2022-09-09T20:57:53;23.40;1.00
1504;DHT22;743;47.076;15.494;2022-09-09T21:00:23;23.50;1.00
1504;DHT22;743;47.076;15.494;2022-09-09T21:02:50;23.00;1.00
1504;DHT22;743;47.076;15.494;2022-09-09T21:05:17;22.60;1.00
1504;DHT22;743;47.076;15.494;2022-09-09T21:07:45;22.20;1.00
1504;DHT22;743;47.076;15.494;2022-09-09T21:10:11;22.10;1.00
1504;DHT22;743;47.076;15.494;2022-09-09T21:12:38;21.80;1.00
1504;DHT22;743;47.076;15.494;2022-09-09T21:15:07;21.80;1.00
1504;DHT22;743;47.076;15.494;2022-09-09T21:17:34;21.00;1.00
1504;DHT22;743;47.076;15.494;2022-09-09T21:20:01;21.00;1.00
1504;DHT22;743;47.076;15.494;2022-09-09T21:22:32;20.80;1.00
1504;DHT22;743;47.076;15.494;2022-09-09T21:25:01;20.70;1.00
1504;DHT22;743;47.076;15.494;2022-09-09T21:27:29;20.70;1.00
1504;DHT22;743;47.076;15.494;2022-09-09T21:29:56;20.70;1.00
1504;DHT22;743;47.076;15.494;2022-09-09T21:32:26;20.70;1.00
1504;DHT22;743;47.076;15.494;2022-09-09T21:34:52;20.30;99.90
1504;DHT22;743;47.076;15.494;2022-09-09T21:37:21;20.20;99.90
1504;DHT22;743;47.076;15.494;2022-09-09T21:39:48;20.20;99.90
1504;DHT22;743;47.076;15.494;2022-09-09T21:42:15;20.20;99.90
1504;DHT22;743;47.076;15.494;2022-09-09T21:44:43;20.20;99.90
1504;DHT22;743;47.076;15.494;2022-09-09T21:47:11;20.10;99.90
1504;DHT22;743;47.076;15.494;2022-09-09T21:49:42;20.20;99.90
1504;DHT22;743;47.076;15.494;2022-09-09T21:52:09;20.10;99.90
1504;DHT22;743;47.076;15.494;2022-09-09T21:54:36;19.90;1.00
1504;DHT22;743;47.076;15.494;2022-09-09T21:57:04;19.90;1.00
1504;DHT22;743;47.076;15.494;2022-09-09T21:59:31;19.90;1.00
1504;DHT22;743;47.076;15.494;2022-09-09T22:01:58;19.90;1.00
1504;DHT22;743;47.076;15.494;2022-09-09T22:04:25;19.90;1.00
1504;DHT22;743;47.076;15.494;2022-09-09T22:06:56;19.80;1.00
1504;DHT22;743;47.076;15.494;2022-09-09T22:09:23;19.80;1.00
1504;DHT22;743;47.076;15.494;2022-09-09T22:11:50;19.80;1.00
1504;DHT22;743;47.076;15.494;2022-09-09T22:14:18;19.60;1.00
1504;DHT22;743;47.076;15.494;2022-09-09T22:16:45;19.60;90.50
1504;DHT22;743;47.076;15.494;2022-09-09T22:19:11;19.60;96.90
1504;DHT22;743;47.076;15.494;2022-09-09T22:21:40;19.50;1.00
1504;DHT22;743;47.076;15.494;2022-09-09T22:24:08;19.60;1.00
1504;DHT22;743;47.076;15.494;2022-09-09T22:26:36;19.60;1.00
1504;DHT22;743;47.076;15.494;2022-09-09T22:29:04;19.70;1.00